Aérodrome :
LOGIN :

S'inscrire | Disclaimer

   EN    FR    IT 

 










Légende :    VFR   VFR Marginal   IFR   IFR Intensif   IFR Très Intensif
Visi : 
Plafond : 
>= 8 km
>= 3000ft
5 à 8 km
1000 à 3000 ft
1500m à 5 km
500 à 1000 ft
800 à 1500m
200 à 500 ft
< 800m
< 200 ft
Symboles :   Orages  Brouillard  Fortes neiges  Fortes précipitations  Vent > 20 kt
SIGMETs :   Divers  Orages  Givrage  Turbulence  Onde Orograph.  Cendres Volcan.







- Altitude de l'aérodrome : 512 ft
- Code IATA : URO
- Voir les cartes d'approche


LFOP - Rouen Vallée de Seine

DERNIER METAR :
  • 230700Z AUTO 21014KT 9999 +RADZ SCT010 BKN014 OVC019 12/11 Q0999 TEMPO 4000 RA BKN012 BKN030TCU BECMG 20020G30KT

METARs EXPIRÉS :
  • 230630Z AUTO 22016KT 7000 -RA BKN015 OVC020 12/11 Q0999 TEMPO 4000 RA BKN012 BKN030TCU BECMG 20020G30KT
  • 230600Z AUTO 21019KT 9999 BKN019 OVC025 13/10 Q0998 TEMPO 4000 RA BKN012 BKN030TCU BECMG 20020G30KT
  • 230530Z AUTO 22023G36KT 9999 -RA OVC021 13/10 Q0998 TEMPO 4000 RA BKN012 BKN030TCU
  • 230500Z AUTO 21025KT 9999 -RA OVC027 13/09 Q0997
  • 230430Z AUTO 21021KT 9999 OVC030 14/08 Q0996

TAF TAF LFOP
Valide du 23 à 06h jusqu'au 24 à 06h UTC


230500Z 2306/2406 20020G30KT 9999 BKN030
TEMPO 2306/2312 4000 RA BKN012 BKN030TCU
BECMG 2310/2312 26010KT BKN012
BECMG 2312/2314 BKN020
BECMG 2318/2320 VRB02KT
BECMG 2322/2324 18017G27KT BKN013
TEMPO 2323/2406 2000 RA BKN005 BKN020CB
BECMG 2404/2406 26015G25KT
ATIS : +33 2 35 80 80 34
Météo : +33 2 32 86 52 80
Pas de NOTAMs connus pour ce terrain.
2 SIGMETs publiés pour la FIR Paris (LFFF) :
 
Turbulence forte
LFFF SIGMET 3 VALID 230700/231000 LFPW
LFFF PARIS FIR/UIR SEV TURB FCST WI N4930 W00015 - N5000 W00015 - N5115 E00200 - N5045 E00315 SFC/FL060 STNR WKN=
Turbulence forte
LFFF SIGMET 2 VALID 230500/230900 LFPW
LFFF PARIS FIR/UIR SEV TURB OBS SE OF LINE N4700 E00430 - N4630 E00400 SFC/FL080 STNR NC=



MET'MAP, la Météo Aéronautique d'un coup d'oeil ! - Copyright ORBIFLY Décembre 2007 - Disclaimer

ORBIFLY MET'MAP TEAM :

Programmation & Développement : Alexandra Zaïnal
Conception & Développement : Baudouin d'Aumeries
Co-Programmation & Développement : Marc-Olivier Méhu
Soutien technique & logistique : Manuel Goepfert

Contact : metmap@orbifly.com




SOURCES & CREDITS :

   NOAA